Zhigansk, Russia
Current Conditions -  °F | °C
As of 2:30 PM on Friday 31 Oct 2014 (Local Time) from UEEE Reporting Station
Light Snow Light Snow  
Wind Chill:   Ceiling: 10000
Heat Index:   Visibility: 3mi
Dew Point:   Wind: 0mph
Humidity: 79%   Direction: NA
Pressure: 29.91"   Gusts: NA
Location:  66.77°N, 123.37°E
Report Text: UEEE 310530Z 00000MPS 5000 -SN OVC100 M14/M17 Q1013 NOSIG RMKQFE751 23490245
Loading
Personal Weather Stations






























Interactive Weather Map
Tropical Storm Tracking
New forecast layout! Learn more

10-Day Weather Forecast

Advertisements
Track Severe Weather on mobile